createdAt,value
2017-12-17T00:02:22.963Z,28.60
2017-12-17T00:04:50.561Z,28.80
2017-12-17T00:07:18.937Z,29.60
2017-12-17T00:09:47.251Z,29.60
2017-12-17T00:12:14.813Z,29.60
2017-12-17T00:14:42.363Z,30.00
2017-12-17T00:17:09.911Z,29.50
2017-12-17T00:19:37.457Z,29.80
2017-12-17T00:22:05.195Z,29.60
2017-12-17T00:24:32.739Z,29.60
2017-12-17T00:27:00.367Z,30.00
2017-12-17T00:29:27.954Z,30.00
2017-12-17T00:31:55.555Z,29.90
2017-12-17T00:34:24.055Z,29.70
2017-12-17T00:36:51.631Z,29.70
2017-12-17T00:39:19.184Z,29.80
2017-12-17T00:41:46.844Z,29.70
2017-12-17T00:44:14.433Z,29.80
2017-12-17T00:46:41.993Z,29.90
2017-12-17T00:49:09.619Z,29.90
2017-12-17T00:51:37.209Z,29.80
2017-12-17T00:54:04.751Z,30.00
2017-12-17T00:56:32.353Z,29.70
2017-12-17T00:59:00.813Z,29.90
2017-12-17T01:01:28.354Z,30.00
2017-12-17T01:03:55.925Z,29.60
2017-12-17T01:06:23.486Z,29.50
2017-12-17T01:08:51.042Z,30.00
2017-12-17T01:11:18.589Z,29.50
2017-12-17T01:13:46.165Z,29.80
2017-12-17T01:16:13.761Z,29.90
2017-12-17T01:18:41.344Z,29.30
2017-12-17T01:21:09.707Z,29.00
2017-12-17T01:23:38.034Z,29.60
2017-12-17T01:26:05.799Z,29.10
2017-12-17T01:28:33.349Z,29.40
2017-12-17T01:31:01.110Z,29.30
2017-12-17T01:33:28.693Z,29.10
2017-12-17T01:35:56.205Z,29.30
2017-12-17T01:38:23.881Z,28.90
2017-12-17T01:40:51.445Z,28.90
2017-12-17T01:43:19.013Z,29.30
2017-12-17T01:45:46.583Z,29.20
2017-12-17T01:48:14.157Z,29.10
2017-12-17T01:50:41.839Z,29.20
2017-12-17T01:53:09.402Z,29.60
2017-12-17T01:55:36.965Z,29.00
2017-12-17T01:58:05.324Z,29.60
2017-12-17T02:00:32.889Z,29.40
2017-12-17T02:03:00.453Z,29.60
2017-12-17T02:05:28.819Z,29.10
2017-12-17T02:07:56.379Z,29.10
2017-12-17T02:10:23.970Z,29.30
2017-12-17T02:12:52.335Z,29.00
2017-12-17T02:15:20.819Z,29.30
2017-12-17T02:17:48.393Z,29.30
2017-12-17T02:20:16.748Z,29.30
2017-12-17T02:22:44.458Z,29.30
2017-12-17T02:25:12.058Z,29.80
2017-12-17T02:27:39.597Z,29.00
2017-12-17T02:30:08.002Z,28.90
2017-12-17T02:32:35.621Z,28.90
2017-12-17T02:35:03.185Z,29.50
2017-12-17T02:37:30.762Z,29.60
2017-12-17T02:39:59.298Z,29.40
2017-12-17T02:42:27.628Z,29.10
2017-12-17T02:44:55.228Z,29.20
2017-12-17T02:47:23.551Z,29.00
2017-12-17T02:49:51.152Z,29.10
2017-12-17T02:52:19.513Z,29.20
2017-12-17T02:54:47.092Z,29.20
2017-12-17T02:57:14.675Z,28.80
2017-12-17T02:59:43.040Z,29.20
2017-12-17T03:02:11.393Z,28.10
2017-12-17T03:04:39.077Z,28.30
2017-12-17T03:07:07.391Z,28.50
2017-12-17T03:09:34.942Z,28.50
2017-12-17T03:12:02.621Z,28.80
2017-12-17T03:14:30.193Z,28.80
2017-12-17T03:16:57.789Z,29.20
2017-12-17T03:19:25.353Z,28.70
2017-12-17T03:21:53.698Z,29.20
2017-12-17T03:24:21.497Z,29.00
2017-12-17T03:26:49.046Z,28.60
2017-12-17T03:29:16.654Z,28.80
2017-12-17T03:31:44.202Z,29.50
2017-12-17T03:34:11.962Z,28.60
2017-12-17T03:36:39.501Z,28.30
2017-12-17T03:39:07.877Z,29.20
2017-12-17T03:41:36.239Z,28.90
2017-12-17T03:44:03.872Z,29.20
2017-12-17T03:46:31.426Z,29.30
2017-12-17T03:48:59.023Z,28.70
2017-12-17T03:51:26.595Z,29.10
2017-12-17T03:53:54.998Z,29.50
2017-12-17T03:56:22.550Z,29.00
2017-12-17T03:58:50.974Z,28.50
2017-12-17T04:01:18.616Z,28.50
2017-12-17T04:03:46.200Z,29.00
2017-12-17T04:06:13.772Z,28.70
2017-12-17T04:08:41.376Z,28.10
2017-12-17T04:11:09.712Z,29.00
2017-12-17T04:13:37.308Z,29.20
2017-12-17T04:16:05.629Z,28.10
2017-12-17T04:18:33.225Z,28.20
2017-12-17T04:21:01.756Z,28.60
2017-12-17T04:23:29.945Z,28.20
2017-12-17T04:25:57.556Z,28.90
2017-12-17T04:28:25.881Z,28.40
2017-12-17T04:30:53.442Z,28.60
2017-12-17T04:33:21.086Z,29.20
2017-12-17T04:35:48.614Z,28.50
2017-12-17T04:38:16.988Z,28.80
2017-12-17T04:40:45.402Z,28.60
2017-12-17T04:43:12.959Z,28.70
2017-12-17T04:45:40.572Z,28.60
2017-12-17T04:48:08.218Z,29.00
2017-12-17T04:50:35.842Z,29.10
2017-12-17T04:53:03.486Z,28.30
2017-12-17T04:55:31.064Z,28.60
2017-12-17T04:57:58.736Z,28.50
2017-12-17T05:00:26.376Z,28.80
2017-12-17T05:02:54.060Z,28.70
2017-12-17T05:05:21.658Z,28.60
2017-12-17T05:07:49.232Z,28.50
2017-12-17T05:10:17.020Z,28.40
2017-12-17T05:12:45.324Z,28.80
2017-12-17T05:15:13.027Z,28.90
2017-12-17T05:17:42.102Z,28.50
2017-12-17T05:20:09.841Z,28.50
2017-12-17T05:22:37.418Z,29.30
2017-12-17T05:25:04.998Z,28.60
2017-12-17T05:27:32.728Z,29.10
2017-12-17T05:30:00.298Z,28.80
2017-12-17T05:32:29.370Z,28.70
2017-12-17T05:34:56.951Z,28.80
2017-12-17T05:37:25.290Z,28.50
2017-12-17T05:39:52.876Z,28.60
2017-12-17T05:42:20.438Z,28.70
2017-12-17T05:44:48.033Z,29.30
2017-12-17T05:47:15.652Z,28.70
2017-12-17T05:49:44.155Z,29.00
2017-12-17T05:52:11.730Z,29.50
2017-12-17T05:54:39.366Z,28.60
2017-12-17T05:57:06.972Z,28.50
2017-12-17T05:59:35.286Z,28.10
2017-12-17T06:02:02.858Z,28.00
2017-12-17T06:04:30.424Z,28.60
2017-12-17T06:06:57.994Z,28.00
2017-12-17T06:09:25.539Z,28.00
2017-12-17T06:11:53.292Z,28.00
2017-12-17T06:14:20.858Z,28.00
2017-12-17T06:16:48.967Z,28.00
2017-12-17T06:19:16.546Z,28.10
2017-12-17T06:21:44.859Z,28.10
2017-12-17T06:24:12.448Z,28.10
2017-12-17T06:26:40.903Z,28.10
2017-12-17T06:29:08.560Z,28.10
2017-12-17T06:31:36.182Z,28.10
2017-12-17T06:34:03.790Z,28.10
2017-12-17T06:36:31.348Z,28.10
2017-12-17T06:38:58.968Z,28.10
2017-12-17T06:41:27.347Z,28.20
2017-12-17T06:43:54.883Z,28.10
2017-12-17T06:46:22.481Z,28.10
2017-12-17T06:48:50.101Z,28.10
2017-12-17T06:51:17.652Z,28.10
2017-12-17T06:53:45.231Z,28.20
2017-12-17T06:56:12.887Z,28.10
2017-12-17T06:58:40.468Z,28.20
2017-12-17T07:01:08.793Z,28.30
2017-12-17T07:03:36.399Z,28.20
2017-12-17T07:06:03.987Z,28.20
2017-12-17T07:08:31.520Z,28.20
2017-12-17T07:10:59.970Z,28.30
2017-12-17T07:13:27.717Z,28.20
2017-12-17T07:15:55.299Z,28.30
2017-12-17T07:18:22.965Z,28.30
2017-12-17T07:20:51.299Z,33.60
2017-12-17T07:23:18.846Z,33.80
2017-12-17T07:25:46.445Z,33.60
2017-12-17T07:28:14.073Z,33.60
2017-12-17T07:30:41.623Z,35.80
2017-12-17T07:33:09.185Z,37.00
2017-12-17T07:35:36.705Z,37.20
2017-12-17T07:38:04.291Z,39.60
2017-12-17T07:40:32.605Z,36.50
2017-12-17T07:43:00.157Z,36.60
2017-12-17T07:45:27.739Z,35.10
2017-12-17T07:47:55.293Z,33.70
2017-12-17T07:50:22.897Z,34.20
2017-12-17T07:52:51.225Z,33.60
2017-12-17T07:55:18.777Z,33.60
2017-12-17T07:57:46.369Z,33.10
2017-12-17T08:00:13.933Z,32.30
2017-12-17T08:02:41.513Z,31.70
2017-12-17T08:05:09.139Z,31.10
2017-12-17T08:07:36.735Z,30.50
2017-12-17T08:10:05.058Z,30.30
2017-12-17T08:12:32.626Z,30.40
2017-12-17T08:15:00.228Z,31.30
2017-12-17T08:17:27.781Z,31.10
2017-12-17T08:19:56.755Z,30.50
2017-12-17T08:22:25.290Z,29.80
2017-12-17T08:24:52.805Z,29.90
2017-12-17T08:27:20.461Z,29.80
2017-12-17T08:29:48.017Z,29.40
2017-12-17T08:32:15.563Z,29.00
2017-12-17T08:34:43.389Z,28.30
2017-12-17T08:37:11.027Z,28.60
2017-12-17T08:39:38.631Z,28.10
2017-12-17T08:42:06.189Z,28.10
2017-12-17T08:44:33.742Z,28.10
2017-12-17T08:47:01.308Z,28.10
2017-12-17T08:49:28.861Z,28.10
2017-12-17T08:51:56.675Z,28.10
2017-12-17T08:54:25.045Z,28.10
2017-12-17T08:56:52.643Z,28.20
2017-12-17T08:59:20.316Z,28.10
2017-12-17T09:01:48.106Z,28.10
2017-12-17T09:04:15.757Z,28.10
2017-12-17T09:06:43.327Z,28.10
2017-12-17T09:09:10.919Z,28.10
2017-12-17T09:11:38.801Z,28.10
2017-12-17T09:14:06.364Z,28.10
2017-12-17T09:16:34.695Z,28.20
2017-12-17T09:19:02.270Z,28.10
2017-12-17T09:21:29.838Z,28.10
2017-12-17T09:23:57.428Z,28.10
2017-12-17T09:26:25.808Z,28.10
2017-12-17T09:28:54.131Z,28.10
2017-12-17T09:31:21.754Z,28.10
2017-12-17T09:33:49.334Z,28.10
2017-12-17T09:36:17.116Z,28.10
2017-12-17T09:38:44.684Z,27.60
2017-12-17T09:41:12.242Z,28.10
2017-12-17T09:43:39.830Z,28.10
2017-12-17T09:46:07.394Z,28.10
2017-12-17T09:48:34.990Z,28.10
2017-12-17T09:51:03.382Z,28.10
2017-12-17T09:53:30.946Z,28.20
2017-12-17T09:55:58.521Z,28.10
2017-12-17T09:58:26.074Z,28.10
2017-12-17T10:00:53.640Z,28.10
2017-12-17T10:03:21.238Z,29.10
2017-12-17T10:05:49.724Z,31.50
2017-12-17T10:08:18.063Z,32.20
2017-12-17T10:10:45.654Z,32.40
2017-12-17T10:13:13.198Z,33.70
2017-12-17T10:15:40.794Z,33.70
2017-12-17T10:18:08.423Z,33.80
2017-12-17T10:20:35.970Z,33.70
2017-12-17T10:23:03.750Z,33.70
2017-12-17T10:25:31.328Z,33.70
2017-12-17T10:27:59.802Z,33.80
2017-12-17T10:30:28.316Z,33.20
2017-12-17T10:32:55.907Z,33.30
2017-12-17T10:35:23.668Z,33.70
2017-12-17T10:37:51.234Z,33.00
2017-12-17T10:40:18.814Z,32.10
2017-12-17T10:42:46.354Z,31.70
2017-12-17T10:45:13.971Z,32.00
2017-12-17T10:47:41.876Z,32.00
2017-12-17T10:50:09.450Z,31.90
2017-12-17T10:52:37.030Z,31.90
2017-12-17T10:55:04.595Z,31.60
2017-12-17T10:57:32.338Z,32.40
2017-12-17T10:59:59.902Z,30.70
2017-12-17T11:02:27.472Z,30.60
2017-12-17T11:04:55.059Z,30.30
2017-12-17T11:07:22.672Z,30.00
2017-12-17T11:09:50.287Z,29.90
2017-12-17T11:12:17.842Z,29.70
2017-12-17T11:14:45.716Z,29.60
2017-12-17T11:17:13.316Z,29.80
2017-12-17T11:19:40.880Z,29.60
2017-12-17T11:22:08.428Z,29.80
2017-12-17T11:24:35.994Z,29.90
2017-12-17T11:27:03.586Z,29.80
2017-12-17T11:29:31.953Z,29.80
2017-12-17T11:31:59.483Z,29.80
2017-12-17T11:34:27.054Z,29.90
2017-12-17T11:36:55.584Z,29.70
2017-12-17T11:39:23.918Z,29.30
2017-12-17T11:41:51.488Z,29.40
2017-12-17T11:44:19.130Z,29.50
2017-12-17T11:46:46.684Z,29.60
2017-12-17T11:49:14.248Z,30.00
2017-12-17T11:51:41.833Z,29.50
2017-12-17T11:54:09.439Z,29.50
2017-12-17T11:56:37.021Z,29.50
2017-12-17T11:59:04.582Z,29.50
2017-12-17T12:01:32.124Z,39.70
2017-12-17T12:03:59.707Z,39.70
2017-12-17T12:06:27.352Z,39.80
2017-12-17T12:08:54.906Z,37.70
2017-12-17T12:11:22.518Z,38.70
2017-12-17T12:13:50.871Z,37.50
2017-12-17T12:16:18.436Z,37.50
2017-12-17T12:18:46.972Z,38.20
2017-12-17T12:21:14.559Z,38.20
2017-12-17T12:23:42.273Z,37.40
2017-12-17T12:26:10.654Z,36.40
2017-12-17T12:28:38.976Z,36.30
2017-12-17T12:31:06.618Z,36.30
2017-12-17T12:33:35.047Z,36.40
2017-12-17T12:36:02.656Z,36.00
2017-12-17T12:38:30.346Z,35.90
2017-12-17T12:40:57.987Z,35.60
2017-12-17T12:43:26.582Z,35.30
2017-12-17T12:45:54.194Z,35.10
2017-12-17T12:48:22.534Z,35.10
2017-12-17T12:50:50.081Z,35.10
2017-12-17T12:53:17.662Z,35.00
2017-12-17T12:55:45.215Z,35.20
2017-12-17T12:58:12.937Z,36.00
2017-12-17T13:00:40.541Z,35.30
2017-12-17T13:03:08.328Z,35.10
2017-12-17T13:05:35.875Z,34.40
2017-12-17T13:08:03.470Z,33.90
2017-12-17T13:10:31.815Z,33.90
2017-12-17T13:12:59.390Z,33.80
2017-12-17T13:15:27.762Z,33.80
2017-12-17T13:17:55.393Z,33.80
2017-12-17T13:20:23.031Z,33.30
2017-12-17T13:22:50.588Z,32.90
2017-12-17T13:25:18.184Z,32.60
2017-12-17T13:27:46.026Z,32.90
2017-12-17T13:30:13.841Z,32.60
2017-12-17T13:32:41.437Z,32.60
2017-12-17T13:35:09.951Z,32.80
2017-12-17T13:37:37.608Z,32.80
2017-12-17T13:40:05.196Z,33.00
2017-12-17T13:42:32.764Z,32.80
2017-12-17T13:45:00.405Z,32.20
2017-12-17T13:47:28.052Z,32.10
2017-12-17T13:49:55.616Z,32.10
2017-12-17T13:52:23.214Z,31.80
2017-12-17T13:54:51.649Z,31.50
2017-12-17T13:57:19.279Z,31.50
2017-12-17T13:59:46.847Z,31.50
2017-12-17T14:02:14.618Z,31.30
2017-12-17T14:04:42.221Z,31.40
2017-12-17T14:07:09.861Z,31.50
2017-12-17T14:09:37.445Z,31.60
2017-12-17T14:12:05.083Z,31.50
2017-12-17T14:14:32.699Z,31.70
2017-12-17T14:17:00.289Z,31.80
2017-12-17T14:19:27.873Z,31.40
2017-12-17T14:21:55.618Z,31.90
2017-12-17T14:24:24.047Z,30.90
2017-12-17T14:26:52.389Z,30.60
2017-12-17T14:29:20.161Z,30.60
2017-12-17T14:31:47.720Z,30.80
2017-12-17T14:34:15.321Z,30.60
2017-12-17T14:36:42.877Z,33.10
2017-12-17T14:39:10.559Z,33.80
2017-12-17T14:41:38.123Z,32.50
2017-12-17T14:44:05.926Z,31.90
2017-12-17T14:46:33.501Z,31.60
2017-12-17T14:49:01.078Z,31.50
2017-12-17T14:51:29.672Z,31.60
2017-12-17T14:53:58.126Z,31.90
2017-12-17T14:56:25.895Z,31.90
2017-12-17T14:58:54.314Z,31.70
2017-12-17T15:01:21.920Z,31.00
2017-12-17T15:03:49.559Z,31.10
2017-12-17T15:06:17.194Z,30.60
2017-12-17T15:08:44.739Z,30.40
2017-12-17T15:11:12.429Z,30.00
2017-12-17T15:13:39.981Z,29.80
2017-12-17T15:16:07.562Z,30.60
2017-12-17T15:18:35.232Z,30.10
2017-12-17T15:21:02.867Z,29.90
2017-12-17T15:23:31.417Z,30.00
2017-12-17T15:25:59.760Z,29.80
2017-12-17T15:28:27.334Z,29.80
2017-12-17T15:30:54.890Z,29.90
2017-12-17T15:33:23.256Z,30.00
2017-12-17T15:35:50.879Z,30.20
2017-12-17T15:38:18.450Z,31.20
2017-12-17T15:40:46.103Z,31.90
2017-12-17T15:43:13.720Z,32.80
2017-12-17T15:45:42.048Z,31.30
2017-12-17T15:48:09.654Z,31.40
2017-12-17T15:50:37.211Z,31.00
2017-12-17T15:53:04.804Z,31.80
2017-12-17T15:55:32.467Z,32.90
2017-12-17T15:58:00.014Z,34.00
2017-12-17T16:00:28.337Z,36.70
2017-12-17T16:02:56.090Z,36.70
2017-12-17T16:05:23.618Z,35.10
2017-12-17T16:07:51.764Z,37.90
2017-12-17T16:10:19.623Z,41.40
2017-12-17T16:12:47.224Z,40.10
2017-12-17T16:15:14.822Z,39.90
2017-12-17T16:17:42.418Z,44.00
2017-12-17T16:20:10.061Z,51.50
2017-12-17T16:22:37.683Z,40.30
2017-12-17T16:25:05.248Z,45.90
2017-12-17T16:27:35.464Z,48.00
2017-12-17T16:30:03.137Z,42.80
2017-12-17T16:32:30.763Z,40.30
2017-12-17T16:34:59.146Z,40.40
2017-12-17T16:37:27.257Z,40.40
2017-12-17T16:39:54.932Z,46.10
2017-12-17T16:42:23.326Z,45.70
2017-12-17T16:44:51.928Z,46.10
2017-12-17T16:47:19.558Z,46.10
2017-12-17T16:49:47.618Z,46.20
2017-12-17T16:52:15.186Z,46.20
2017-12-17T16:54:43.674Z,43.30
2017-12-17T16:57:11.246Z,43.30
2017-12-17T16:59:40.348Z,40.50
2017-12-17T17:02:07.915Z,40.50
2017-12-17T17:04:36.247Z,39.70
2017-12-17T17:07:03.862Z,40.00
2017-12-17T17:09:32.184Z,39.30
2017-12-17T17:11:59.800Z,39.40
2017-12-17T17:14:28.119Z,37.30
2017-12-17T17:16:55.706Z,37.30
2017-12-17T17:19:23.306Z,36.70
2017-12-17T17:21:50.876Z,36.70
2017-12-17T17:24:18.481Z,36.70
2017-12-17T17:26:46.895Z,36.00
2017-12-17T17:29:15.276Z,36.20
2017-12-17T17:31:43.613Z,36.00
2017-12-17T17:34:11.188Z,36.00
2017-12-17T17:36:39.724Z,35.50
2017-12-17T17:39:07.328Z,34.90
2017-12-17T17:41:34.906Z,35.00
2017-12-17T17:44:03.274Z,34.60
2017-12-17T17:46:30.887Z,34.60
2017-12-17T17:48:58.456Z,34.00
2017-12-17T17:51:26.042Z,34.20
2017-12-17T17:53:53.650Z,34.00
2017-12-17T17:56:21.238Z,34.50
2017-12-17T17:58:49.218Z,34.00
2017-12-17T18:01:16.804Z,34.00
2017-12-17T18:03:44.622Z,34.20
2017-12-17T18:06:12.195Z,34.40
2017-12-17T18:08:39.771Z,33.90
2017-12-17T18:11:07.424Z,33.90
2017-12-17T18:13:35.026Z,34.30
2017-12-17T18:16:03.388Z,34.00
2017-12-17T18:18:31.098Z,34.10
2017-12-17T18:20:58.673Z,34.30
2017-12-17T18:23:26.242Z,34.40
2017-12-17T18:25:53.874Z,34.80
2017-12-17T18:28:21.504Z,34.70
2017-12-17T18:30:49.866Z,34.60
2017-12-17T18:33:17.682Z,34.50
2017-12-17T18:35:45.246Z,34.30
2017-12-17T18:38:12.919Z,34.10
2017-12-17T18:40:40.561Z,34.50
2017-12-17T18:43:08.337Z,34.20
2017-12-17T18:45:35.912Z,34.00
2017-12-17T18:48:03.533Z,33.80
2017-12-17T18:50:31.884Z,33.80
2017-12-17T18:52:59.506Z,33.70
2017-12-17T18:55:27.154Z,33.80
2017-12-17T18:57:54.720Z,33.80
2017-12-17T19:00:22.350Z,33.80
2017-12-17T19:02:50.780Z,33.80
2017-12-17T19:05:19.338Z,33.80
2017-12-17T19:07:46.935Z,33.80
2017-12-17T19:10:14.686Z,33.80
2017-12-17T19:12:42.270Z,33.80
2017-12-17T19:15:09.937Z,33.80
2017-12-17T19:17:38.306Z,33.80
2017-12-17T19:20:05.917Z,33.80
2017-12-17T19:22:33.460Z,33.70
2017-12-17T19:25:01.026Z,33.70
2017-12-17T19:27:28.622Z,33.40
2017-12-17T19:29:56.231Z,33.20
2017-12-17T19:32:24.865Z,33.00
2017-12-17T19:34:52.462Z,33.10
2017-12-17T19:37:20.093Z,33.00
2017-12-17T19:39:47.676Z,33.00
2017-12-17T19:42:16.070Z,32.80
2017-12-17T19:44:44.428Z,32.70
2017-12-17T19:47:12.064Z,32.70
2017-12-17T19:49:39.821Z,32.60
2017-12-17T19:52:07.510Z,32.40
2017-12-17T19:54:35.339Z,32.40
2017-12-17T19:57:03.307Z,32.50
2017-12-17T19:59:31.376Z,32.30
2017-12-17T20:01:59.768Z,32.20
2017-12-17T20:04:28.542Z,32.10
2017-12-17T20:06:56.616Z,32.20
2017-12-17T20:09:24.789Z,32.20
2017-12-17T20:11:52.827Z,32.20
2017-12-17T20:14:20.931Z,32.10
2017-12-17T20:16:48.901Z,32.10
2017-12-17T20:19:17.177Z,32.10
2017-12-17T20:21:45.354Z,32.00
2017-12-17T20:24:13.737Z,31.90
2017-12-17T20:26:41.904Z,31.90
2017-12-17T20:29:09.977Z,32.30
2017-12-17T20:31:37.945Z,31.80
2017-12-17T20:34:07.044Z,31.80
2017-12-17T20:36:35.017Z,31.70
2017-12-17T20:39:02.984Z,31.70
2017-12-17T20:41:30.948Z,31.70
2017-12-17T20:43:59.017Z,31.70
2017-12-17T20:46:27.910Z,31.70
2017-12-17T20:48:55.622Z,31.60
2017-12-17T20:51:24.031Z,31.60
2017-12-17T20:53:52.432Z,31.40
2017-12-17T20:56:20.023Z,31.50
2017-12-17T20:58:47.629Z,31.40
2017-12-17T21:01:16.003Z,31.40
2017-12-17T21:03:44.394Z,31.30
2017-12-17T21:06:11.965Z,31.40
2017-12-17T21:08:39.594Z,31.40
2017-12-17T21:11:07.955Z,31.30
2017-12-17T21:13:35.561Z,31.30
2017-12-17T21:16:03.175Z,31.10
2017-12-17T21:18:31.647Z,31.20
2017-12-17T21:20:59.251Z,31.20
2017-12-17T21:23:27.611Z,31.70
2017-12-17T21:25:55.989Z,31.00
2017-12-17T21:28:24.312Z,31.00
2017-12-17T21:30:52.019Z,31.10
2017-12-17T21:33:19.626Z,31.00
2017-12-17T21:35:47.398Z,30.90
2017-12-17T21:38:14.967Z,30.90
2017-12-17T21:40:42.605Z,31.10
2017-12-17T21:43:10.307Z,31.00
2017-12-17T21:45:37.890Z,31.20
2017-12-17T21:48:08.773Z,30.80
2017-12-17T21:50:36.363Z,30.80
2017-12-17T21:53:04.111Z,30.70
2017-12-17T21:55:31.642Z,30.80
2017-12-17T21:57:59.231Z,30.80
2017-12-17T22:00:26.990Z,30.70
2017-12-17T22:02:54.585Z,30.80
2017-12-17T22:05:22.279Z,31.10
2017-12-17T22:07:50.619Z,30.90
2017-12-17T22:10:19.170Z,30.90
2017-12-17T22:12:46.751Z,30.70
2017-12-17T22:15:14.505Z,30.80
2017-12-17T22:17:42.055Z,30.70
2017-12-17T22:20:09.627Z,30.70
2017-12-17T22:22:37.264Z,30.40
2017-12-17T22:25:04.841Z,30.60
2017-12-17T22:27:32.524Z,30.40
2017-12-17T22:30:00.093Z,30.60
2017-12-17T22:32:27.709Z,30.40
2017-12-17T22:34:55.282Z,30.20
2017-12-17T22:37:22.849Z,30.10
2017-12-17T22:39:50.640Z,30.10
2017-12-17T22:42:18.199Z,30.00
2017-12-17T22:44:45.738Z,30.00
2017-12-17T22:47:13.319Z,30.00
2017-12-17T22:49:40.985Z,30.00
2017-12-17T22:52:08.588Z,30.00
2017-12-17T22:54:36.169Z,29.90
2017-12-17T22:57:03.941Z,29.90
2017-12-17T22:59:31.514Z,29.90
2017-12-17T23:01:59.110Z,29.90
2017-12-17T23:04:27.603Z,29.80
2017-12-17T23:06:55.231Z,29.80
2017-12-17T23:09:22.777Z,30.00
2017-12-17T23:11:51.971Z,29.90
2017-12-17T23:14:19.554Z,29.90
2017-12-17T23:16:47.166Z,30.40
2017-12-17T23:19:14.734Z,30.40
2017-12-17T23:21:42.352Z,29.90
2017-12-17T23:24:10.681Z,29.90
2017-12-17T23:26:38.281Z,29.90
2017-12-17T23:29:06.638Z,29.80
2017-12-17T23:31:34.241Z,29.90
2017-12-17T23:34:01.862Z,29.70
2017-12-17T23:36:29.385Z,29.80
2017-12-17T23:38:56.933Z,29.80
2017-12-17T23:41:24.511Z,29.60
2017-12-17T23:43:52.076Z,29.70
2017-12-17T23:46:19.843Z,29.70
2017-12-17T23:48:47.477Z,29.70
2017-12-17T23:51:15.038Z,29.80
2017-12-17T23:53:42.765Z,29.80
2017-12-17T23:56:11.123Z,29.80
2017-12-17T23:58:40.261Z,29.60
